Piper City, IL (60959)

7:54 PM CST on November 24, 2014 (GMT -0600)
FARM 4 MILES N.E. OF TOWN | Change Station
CLOSE
Current Station
Personal Weather Station
Location: PIPER CITY, IL
Elevation: 668 ft
Nearby Weather Stations
Active Advisory: Special Statement

Elev 668 ft 40.81 °N, 88.16 °W | Updated 3 minutes ago

Overcast
Overcast
29.9 °F
Feels Like 16 °F
N
23.0
Wind Variable Wind from West

Today
High -- | Low -- °F
--% Chance of Precip.
Yesterday
High -- | Low -- °F
Precip. -- in
6:50 AM 4:28 PM
Waxing Crescent, 8% visible
Pressure 29.81 in
Visibility 7.0 miles
Clouds Mostly Cloudy 2100 ft
Mostly Cloudy 2600 ft
Overcast 3700 ft
Windchill 16 °F
Dew Point 26 °F
Humidity 84%
Rainfall 0.28 in
Snow Depth Not available.
UV 0 out of 12
Pollen .10 out of 12
Air Quality Not available.
Flu Activity Not available.
METAR KPNT 250135Z AUTO 26019G28KT 7SM -SN BKN021 BKN026 OVC037 M01/M03 A2981 RMK AO2 T10101032

More Conditions Fewer Conditions

Pressure 29.81 in
Visibility 7.0 miles
Clouds Mostly Cloudy 2100 ft
Mostly Cloudy 2600 ft
Overcast 3700 ft
Windchill 16 °F
Dew Point 26 °F
Humidity 84%
Rainfall 0.28 in
Snow Depth Not available.
UV 0 out of 12
Pollen .10 out of 12
Air Quality Not available.
Flu Activity Not available.
METAR KPNT 250135Z AUTO 26019G28KT 7SM -SN BKN021 BKN026 OVC037 M01/M03 A2981 RMK AO2 T10101032

More Conditions Fewer Conditions

10-Day Weather Forecast

Almanac

Astronomy

Nov. 24, 2014 Rise Set
Actual Time
Civil Twilight
Nautical Twilight
Astronomical Twilight
Moon
Length of Visible Light
Length of Day
Tomorrow will be .
, % of the Moon is Illuminated

Today's Extremes

State Highs State Lows

Community

WunderPhotos

Upload Photos

1,773,459 photos uploaded!

WunderBlogs® & News

Nearby

Air Quality

  Air Quality AQ Index Pollutant
Not available.

Snow Depth

Station Depth Elevation

Earthquake Activity

City Distance Mag. Time & Date
Minimum magnitude displayed is 2.5.

Coastal Water Temperatures

Place Temperature

Nearby Weather Stations